sensor_id;sensor_type;location;lat;lon;timestamp;temperature;humidity
7970;DHT22;4030;52.362;9.206;2023-05-07T00:04:17;16.40;67.70
7970;DHT22;4030;52.362;9.206;2023-05-07T00:21:19;16.20;68.10
7970;DHT22;4030;52.362;9.206;2023-05-07T00:26:10;16.40;68.70
7970;DHT22;4030;52.362;9.206;2023-05-07T00:31:02;16.30;68.90
7970;DHT22;4030;52.362;9.206;2023-05-07T00:33:28;16.00;68.70
7970;DHT22;4030;52.362;9.206;2023-05-07T00:35:53;16.20;69.00
7970;DHT22;4030;52.362;9.206;2023-05-07T00:38:19;16.20;69.10
7970;DHT22;4030;52.362;9.206;2023-05-07T00:43:12;16.20;69.50
7970;DHT22;4030;52.362;9.206;2023-05-07T00:45:38;16.70;70.10
7970;DHT22;4030;52.362;9.206;2023-05-07T00:48:04;15.90;69.50
7970;DHT22;4030;52.362;9.206;2023-05-07T00:50:30;15.80;69.40
7970;DHT22;4030;52.362;9.206;2023-05-07T00:52:57;16.10;69.70
7970;DHT22;4030;52.362;9.206;2023-05-07T00:55:24;15.70;69.40
7970;DHT22;4030;52.362;9.206;2023-05-07T00:57:50;16.00;69.70
7970;DHT22;4030;52.362;9.206;2023-05-07T01:00:17;15.70;69.80
7970;DHT22;4030;52.362;9.206;2023-05-07T01:02:43;15.70;69.80
7970;DHT22;4030;52.362;9.206;2023-05-07T01:05:12;15.90;70.10
7970;DHT22;4030;52.362;9.206;2023-05-07T01:07:40;15.90;70.20
7970;DHT22;4030;52.362;9.206;2023-05-07T01:10:07;15.70;69.90
7970;DHT22;4030;52.362;9.206;2023-05-07T01:15:01;16.00;70.60
7970;DHT22;4030;52.362;9.206;2023-05-07T01:17:28;15.60;70.30
7970;DHT22;4030;52.362;9.206;2023-05-07T01:19:53;15.80;70.50
7970;DHT22;4030;52.362;9.206;2023-05-07T01:22:33;15.60;70.30
7970;DHT22;4030;52.362;9.206;2023-05-07T01:25:00;15.60;70.50
7970;DHT22;4030;52.362;9.206;2023-05-07T01:29:53;15.50;70.50
7970;DHT22;4030;52.362;9.206;2023-05-07T01:32:23;15.60;70.70
7970;DHT22;4030;52.362;9.206;2023-05-07T01:34:55;15.40;70.70
7970;DHT22;4030;52.362;9.206;2023-05-07T01:37:23;15.50;70.90
7970;DHT22;4030;52.362;9.206;2023-05-07T01:39:50;15.50;71.00
7970;DHT22;4030;52.362;9.206;2023-05-07T01:42:15;15.40;70.90
7970;DHT22;4030;52.362;9.206;2023-05-07T01:47:08;15.50;71.20
7970;DHT22;4030;52.362;9.206;2023-05-07T01:49:34;15.30;71.10
7970;DHT22;4030;52.362;9.206;2023-05-07T01:52:00;15.30;71.30
7970;DHT22;4030;52.362;9.206;2023-05-07T01:54:26;15.30;71.40
7970;DHT22;4030;52.362;9.206;2023-05-07T01:56:59;15.50;71.60
7970;DHT22;4030;52.362;9.206;2023-05-07T01:59:25;15.40;71.60
7970;DHT22;4030;52.362;9.206;2023-05-07T02:01:51;15.20;71.50
7970;DHT22;4030;52.362;9.206;2023-05-07T02:04:17;15.50;71.90
7970;DHT22;4030;52.362;9.206;2023-05-07T02:06:42;15.50;71.90
7970;DHT22;4030;52.362;9.206;2023-05-07T02:09:08;15.30;71.70
7970;DHT22;4030;52.362;9.206;2023-05-07T02:11:34;15.30;71.80
7970;DHT22;4030;52.362;9.206;2023-05-07T02:14:00;15.40;72.00
7970;DHT22;4030;52.362;9.206;2023-05-07T02:26:10;15.30;72.30
7970;DHT22;4030;52.362;9.206;2023-05-07T02:31:03;15.20;72.30
7970;DHT22;4030;52.362;9.206;2023-05-07T02:33:29;15.20;72.50
7970;DHT22;4030;52.362;9.206;2023-05-07T02:35:55;15.10;72.40
7970;DHT22;4030;52.362;9.206;2023-05-07T02:43:13;15.10;72.60
7970;DHT22;4030;52.362;9.206;2023-05-07T02:48:05;15.10;72.50
7970;DHT22;4030;52.362;9.206;2023-05-07T02:50:31;15.20;72.80
7970;DHT22;4030;52.362;9.206;2023-05-07T02:52:58;15.20;72.90
7970;DHT22;4030;52.362;9.206;2023-05-07T02:55:23;15.10;72.80
7970;DHT22;4030;52.362;9.206;2023-05-07T02:57:49;15.30;73.10
7970;DHT22;4030;52.362;9.206;2023-05-07T03:00:17;15.10;72.70
7970;DHT22;4030;52.362;9.206;2023-05-07T03:02:44;15.00;72.80
7970;DHT22;4030;52.362;9.206;2023-05-07T03:05:10;15.00;73.00
7970;DHT22;4030;52.362;9.206;2023-05-07T03:07:37;15.20;73.20
7970;DHT22;4030;52.362;9.206;2023-05-07T03:10:03;15.00;73.20
7970;DHT22;4030;52.362;9.206;2023-05-07T03:12:30;15.00;73.20
7970;DHT22;4030;52.362;9.206;2023-05-07T03:14:56;14.90;73.20
7970;DHT22;4030;52.362;9.206;2023-05-07T03:17:22;14.80;73.00
7970;DHT22;4030;52.362;9.206;2023-05-07T03:22:14;14.90;73.30
7970;DHT22;4030;52.362;9.206;2023-05-07T03:39:16;14.80;73.40
7970;DHT22;4030;52.362;9.206;2023-05-07T03:51:26;14.80;73.50
7970;DHT22;4030;52.362;9.206;2023-05-07T03:58:45;14.70;73.50
7970;DHT22;4030;52.362;9.206;2023-05-07T04:01:11;14.70;73.40
7970;DHT22;4030;52.362;9.206;2023-05-07T04:03:37;15.00;73.80
7970;DHT22;4030;52.362;9.206;2023-05-07T04:10:58;14.80;73.60
7970;DHT22;4030;52.362;9.206;2023-05-07T04:13:24;14.80;73.70
7970;DHT22;4030;52.362;9.206;2023-05-07T04:15:51;15.00;74.00
7970;DHT22;4030;52.362;9.206;2023-05-07T04:18:17;14.70;73.70
7970;DHT22;4030;52.362;9.206;2023-05-07T04:45:04;14.80;73.90
7970;DHT22;4030;52.362;9.206;2023-05-07T04:47:30;14.70;73.90
7970;DHT22;4030;52.362;9.206;2023-05-07T04:49:57;14.80;73.90
7970;DHT22;4030;52.362;9.206;2023-05-07T04:54:49;14.90;74.20
7970;DHT22;4030;52.362;9.206;2023-05-07T04:57:15;15.00;74.30
7970;DHT22;4030;52.362;9.206;2023-05-07T04:59:43;14.70;74.00
7970;DHT22;4030;52.362;9.206;2023-05-07T05:02:10;14.80;74.30
7970;DHT22;4030;52.362;9.206;2023-05-07T05:04:36;14.80;74.30
7970;DHT22;4030;52.362;9.206;2023-05-07T05:07:02;15.00;74.50
7970;DHT22;4030;52.362;9.206;2023-05-07T05:09:29;14.60;74.00
7970;DHT22;4030;52.362;9.206;2023-05-07T05:11:55;14.90;74.50
7970;DHT22;4030;52.362;9.206;2023-05-07T05:14:21;14.80;74.40
7970;DHT22;4030;52.362;9.206;2023-05-07T06:03:02;15.00;75.10
7970;DHT22;4030;52.362;9.206;2023-05-07T06:10:21;14.80;74.80
7970;DHT22;4030;52.362;9.206;2023-05-07T06:12:46;15.00;74.80
7970;DHT22;4030;52.362;9.206;2023-05-07T06:20:05;15.10;74.60
7970;DHT22;4030;52.362;9.206;2023-05-07T06:22:31;15.00;74.50
7970;DHT22;4030;52.362;9.206;2023-05-07T06:34:42;15.20;74.30
7970;DHT22;4030;52.362;9.206;2023-05-07T06:37:08;15.30;74.30
7970;DHT22;4030;52.362;9.206;2023-05-07T06:39:33;15.00;74.00
7970;DHT22;4030;52.362;9.206;2023-05-07T06:42:00;15.20;74.10
7970;DHT22;4030;52.362;9.206;2023-05-07T06:44:27;15.10;74.00
7970;DHT22;4030;52.362;9.206;2023-05-07T06:46:52;15.20;74.00
7970;DHT22;4030;52.362;9.206;2023-05-07T06:51:44;15.10;73.80
7970;DHT22;4030;52.362;9.206;2023-05-07T06:54:10;15.40;74.00
7970;DHT22;4030;52.362;9.206;2023-05-07T06:56:36;15.20;73.70
7970;DHT22;4030;52.362;9.206;2023-05-07T07:01:28;15.30;73.70
7970;DHT22;4030;52.362;9.206;2023-05-07T07:06:20;15.20;73.40
7970;DHT22;4030;52.362;9.206;2023-05-07T07:16:05;15.30;73.30
7970;DHT22;4030;52.362;9.206;2023-05-07T07:23:24;15.40;73.20
7970;DHT22;4030;52.362;9.206;2023-05-07T07:25:50;15.50;73.30
7970;DHT22;4030;52.362;9.206;2023-05-07T07:28:16;15.50;73.20
7970;DHT22;4030;52.362;9.206;2023-05-07T07:30:42;15.40;73.00
7970;DHT22;4030;52.362;9.206;2023-05-07T07:33:08;15.40;73.00
7970;DHT22;4030;52.362;9.206;2023-05-07T07:35:34;15.40;73.00
7970;DHT22;4030;52.362;9.206;2023-05-07T07:37:59;15.40;73.00
7970;DHT22;4030;52.362;9.206;2023-05-07T07:40:25;15.50;73.10
7970;DHT22;4030;52.362;9.206;2023-05-07T07:42:52;15.30;72.70
7970;DHT22;4030;52.362;9.206;2023-05-07T07:45:18;15.50;73.00
7970;DHT22;4030;52.362;9.206;2023-05-07T07:47:44;15.50;73.00
7970;DHT22;4030;52.362;9.206;2023-05-07T07:50:10;15.60;73.00
7970;DHT22;4030;52.362;9.206;2023-05-07T07:52:36;15.20;72.50
7970;DHT22;4030;52.362;9.206;2023-05-07T07:55:01;15.20;72.40
7970;DHT22;4030;52.362;9.206;2023-05-07T08:07:12;15.40;72.50
7970;DHT22;4030;52.362;9.206;2023-05-07T08:09:39;15.40;72.50
7970;DHT22;4030;52.362;9.206;2023-05-07T08:12:06;15.40;72.50
7970;DHT22;4030;52.362;9.206;2023-05-07T08:14:33;15.30;72.40
7970;DHT22;4030;52.362;9.206;2023-05-07T08:16:59;15.60;72.70
7970;DHT22;4030;52.362;9.206;2023-05-07T08:19:25;15.40;72.50
7970;DHT22;4030;52.362;9.206;2023-05-07T08:24:17;15.40;72.40
7970;DHT22;4030;52.362;9.206;2023-05-07T08:26:44;15.50;72.50
7970;DHT22;4030;52.362;9.206;2023-05-07T08:31:36;15.60;72.50
7970;DHT22;4030;52.362;9.206;2023-05-07T08:34:04;15.70;72.70
7970;DHT22;4030;52.362;9.206;2023-05-07T08:36:30;15.70;72.60
7970;DHT22;4030;52.362;9.206;2023-05-07T08:38:56;15.50;72.30
7970;DHT22;4030;52.362;9.206;2023-05-07T08:41:21;15.80;72.50
7970;DHT22;4030;52.362;9.206;2023-05-07T08:43:48;15.70;72.20
7970;DHT22;4030;52.362;9.206;2023-05-07T08:46:22;15.70;72.20
7970;DHT22;4030;52.362;9.206;2023-05-07T08:48:48;15.90;72.30
7970;DHT22;4030;52.362;9.206;2023-05-07T08:51:18;15.60;71.90
7970;DHT22;4030;52.362;9.206;2023-05-07T08:53:48;15.80;72.10
7970;DHT22;4030;52.362;9.206;2023-05-07T08:58:42;15.90;72.30
7970;DHT22;4030;52.362;9.206;2023-05-07T09:01:12;15.90;72.30
7970;DHT22;4030;52.362;9.206;2023-05-07T09:06:06;16.00;74.80
7970;DHT22;4030;52.362;9.206;2023-05-07T09:08:35;16.10;75.20
7970;DHT22;4030;52.362;9.206;2023-05-07T09:11:01;16.10;74.90
7970;DHT22;4030;52.362;9.206;2023-05-07T09:15:54;16.20;74.20
7970;DHT22;4030;52.362;9.206;2023-05-07T09:18:20;16.10;73.40
7970;DHT22;4030;52.362;9.206;2023-05-07T09:28:04;16.20;72.40
7970;DHT22;4030;52.362;9.206;2023-05-07T09:30:33;16.40;72.30
7970;DHT22;4030;52.362;9.206;2023-05-07T09:33:02;16.40;72.20
7970;DHT22;4030;52.362;9.206;2023-05-07T09:35:29;16.50;72.00
7970;DHT22;4030;52.362;9.206;2023-05-07T09:37:59;16.50;71.80
7970;DHT22;4030;52.362;9.206;2023-05-07T09:40:27;16.60;72.20
7970;DHT22;4030;52.362;9.206;2023-05-07T09:42:54;16.70;74.40
7970;DHT22;4030;52.362;9.206;2023-05-07T09:45:26;16.70;75.10
7970;DHT22;4030;52.362;9.206;2023-05-07T09:47:56;16.80;74.60
7970;DHT22;4030;52.362;9.206;2023-05-07T09:50:29;16.90;73.90
7970;DHT22;4030;52.362;9.206;2023-05-07T09:52:56;16.90;73.30
7970;DHT22;4030;52.362;9.206;2023-05-07T09:55:22;16.80;72.70
7970;DHT22;4030;52.362;9.206;2023-05-07T09:57:52;17.10;72.50
7970;DHT22;4030;52.362;9.206;2023-05-07T10:00:20;17.10;72.10
7970;DHT22;4030;52.362;9.206;2023-05-07T10:02:50;17.00;71.70
7970;DHT22;4030;52.362;9.206;2023-05-07T10:05:21;17.20;71.70
7970;DHT22;4030;52.362;9.206;2023-05-07T10:07:48;17.20;71.40
7970;DHT22;4030;52.362;9.206;2023-05-07T10:10:14;17.20;71.70
7970;DHT22;4030;52.362;9.206;2023-05-07T10:12:43;17.30;72.10
7970;DHT22;4030;52.362;9.206;2023-05-07T10:15:10;17.40;72.10
7970;DHT22;4030;52.362;9.206;2023-05-07T10:17:37;17.50;72.00
7970;DHT22;4030;52.362;9.206;2023-05-07T10:20:05;17.40;71.50
7970;DHT22;4030;52.362;9.206;2023-05-07T10:22:43;17.40;71.20
7970;DHT22;4030;52.362;9.206;2023-05-07T10:25:18;17.60;71.20
7970;DHT22;4030;52.362;9.206;2023-05-07T10:27:48;17.60;70.90
7970;DHT22;4030;52.362;9.206;2023-05-07T10:30:25;17.50;70.40
7970;DHT22;4030;52.362;9.206;2023-05-07T10:32:56;17.70;70.40
7970;DHT22;4030;52.362;9.206;2023-05-07T10:35:32;17.50;69.90
7970;DHT22;4030;52.362;9.206;2023-05-07T10:38:04;17.70;69.90
7970;DHT22;4030;52.362;9.206;2023-05-07T10:40:31;17.70;69.60
7970;DHT22;4030;52.362;9.206;2023-05-07T10:43:01;17.80;69.60
7970;DHT22;4030;52.362;9.206;2023-05-07T10:48:06;17.90;69.20
7970;DHT22;4030;52.362;9.206;2023-05-07T10:50:37;17.90;69.00
7970;DHT22;4030;52.362;9.206;2023-05-07T10:55:43;18.00;68.50
7970;DHT22;4030;52.362;9.206;2023-05-07T11:00:49;18.20;68.40
7970;DHT22;4030;52.362;9.206;2023-05-07T11:03:16;18.20;68.20
7970;DHT22;4030;52.362;9.206;2023-05-07T11:05:42;18.40;68.10
7970;DHT22;4030;52.362;9.206;2023-05-07T11:08:08;18.50;68.00
7970;DHT22;4030;52.362;9.206;2023-05-07T11:10:55;18.60;67.80
7970;DHT22;4030;52.362;9.206;2023-05-07T11:13:41;18.70;67.80
7970;DHT22;4030;52.362;9.206;2023-05-07T11:16:19;18.80;67.60
7970;DHT22;4030;52.362;9.206;2023-05-07T11:18:50;18.80;67.50
7970;DHT22;4030;52.362;9.206;2023-05-07T11:21:39;19.00;67.30
7970;DHT22;4030;52.362;9.206;2023-05-07T11:24:07;19.00;67.10
7970;DHT22;4030;52.362;9.206;2023-05-07T11:26:43;19.20;67.20
7970;DHT22;4030;52.362;9.206;2023-05-07T11:29:19;19.20;66.60
7970;DHT22;4030;52.362;9.206;2023-05-07T11:31:53;19.20;66.50
7970;DHT22;4030;52.362;9.206;2023-05-07T11:34:24;19.30;66.30
7970;DHT22;4030;52.362;9.206;2023-05-07T11:36:51;19.30;66.20
7970;DHT22;4030;52.362;9.206;2023-05-07T11:39:28;19.40;66.10
7970;DHT22;4030;52.362;9.206;2023-05-07T11:44:21;19.50;66.00
7970;DHT22;4030;52.362;9.206;2023-05-07T11:46:48;19.70;65.70
7970;DHT22;4030;52.362;9.206;2023-05-07T11:49:14;19.80;65.40
7970;DHT22;4030;52.362;9.206;2023-05-07T11:51:41;19.80;65.00
7970;DHT22;4030;52.362;9.206;2023-05-07T11:54:08;19.90;64.70
7970;DHT22;4030;52.362;9.206;2023-05-07T11:59:02;20.10;63.90
7970;DHT22;4030;52.362;9.206;2023-05-07T12:01:28;20.10;63.60
7970;DHT22;4030;52.362;9.206;2023-05-07T12:11:21;20.40;62.80
7970;DHT22;4030;52.362;9.206;2023-05-07T12:13:48;20.50;62.80
7970;DHT22;4030;52.362;9.206;2023-05-07T12:16:14;20.50;62.40
7970;DHT22;4030;52.362;9.206;2023-05-07T12:18:40;20.50;62.30
7970;DHT22;4030;52.362;9.206;2023-05-07T12:21:06;20.70;62.20
7970;DHT22;4030;52.362;9.206;2023-05-07T12:23:33;20.70;62.00
7970;DHT22;4030;52.362;9.206;2023-05-07T12:26:00;20.80;61.80
7970;DHT22;4030;52.362;9.206;2023-05-07T12:28:26;20.70;61.30
7970;DHT22;4030;52.362;9.206;2023-05-07T12:30:52;20.90;61.30
7970;DHT22;4030;52.362;9.206;2023-05-07T12:33:19;21.00;61.00
7970;DHT22;4030;52.362;9.206;2023-05-07T12:35:50;21.20;60.60
7970;DHT22;4030;52.362;9.206;2023-05-07T12:38:17;21.30;60.40
7970;DHT22;4030;52.362;9.206;2023-05-07T12:40:50;21.30;60.10
7970;DHT22;4030;52.362;9.206;2023-05-07T12:43:21;21.30;59.90
7970;DHT22;4030;52.362;9.206;2023-05-07T12:45:51;21.40;59.50
7970;DHT22;4030;52.362;9.206;2023-05-07T12:48:19;21.50;59.40
7970;DHT22;4030;52.362;9.206;2023-05-07T12:50:52;21.50;59.30
7970;DHT22;4030;52.362;9.206;2023-05-07T12:53:22;21.60;59.30
7970;DHT22;4030;52.362;9.206;2023-05-07T12:55:51;21.70;59.00
7970;DHT22;4030;52.362;9.206;2023-05-07T12:58:29;21.80;58.80
7970;DHT22;4030;52.362;9.206;2023-05-07T13:00:58;21.90;58.80
7970;DHT22;4030;52.362;9.206;2023-05-07T13:05:58;22.10;58.70
7970;DHT22;4030;52.362;9.206;2023-05-07T13:08:33;22.20;58.60
7970;DHT22;4030;52.362;9.206;2023-05-07T13:11:02;22.30;58.30
7970;DHT22;4030;52.362;9.206;2023-05-07T13:13:33;22.50;58.00
7970;DHT22;4030;52.362;9.206;2023-05-07T13:18:28;23.00;57.50
7970;DHT22;4030;52.362;9.206;2023-05-07T13:20:55;23.40;57.30
7970;DHT22;4030;52.362;9.206;2023-05-07T13:23:21;23.70;56.80
7970;DHT22;4030;52.362;9.206;2023-05-07T13:25:47;24.00;56.50
7970;DHT22;4030;52.362;9.206;2023-05-07T13:30:39;24.60;55.70
7970;DHT22;4030;52.362;9.206;2023-05-07T13:33:06;24.80;55.20
7970;DHT22;4030;52.362;9.206;2023-05-07T13:35:32;25.00;54.70
7970;DHT22;4030;52.362;9.206;2023-05-07T13:37:58;25.20;54.40
7970;DHT22;4030;52.362;9.206;2023-05-07T13:40:24;25.40;54.10
7970;DHT22;4030;52.362;9.206;2023-05-07T13:42:50;25.60;53.70
7970;DHT22;4030;52.362;9.206;2023-05-07T13:45:17;25.70;53.30
7970;DHT22;4030;52.362;9.206;2023-05-07T13:47:43;25.80;52.90
7970;DHT22;4030;52.362;9.206;2023-05-07T13:50:10;25.90;52.50
7970;DHT22;4030;52.362;9.206;2023-05-07T13:52:43;26.20;52.10
7970;DHT22;4030;52.362;9.206;2023-05-07T13:57:38;26.60;50.90
7970;DHT22;4030;52.362;9.206;2023-05-07T14:00:04;26.70;50.40
7970;DHT22;4030;52.362;9.206;2023-05-07T14:02:31;26.80;49.90
7970;DHT22;4030;52.362;9.206;2023-05-07T14:04:56;26.80;49.50
7970;DHT22;4030;52.362;9.206;2023-05-07T14:07:22;26.90;49.10
7970;DHT22;4030;52.362;9.206;2023-05-07T14:09:48;26.80;49.10
7970;DHT22;4030;52.362;9.206;2023-05-07T14:12:13;26.60;49.00
7970;DHT22;4030;52.362;9.206;2023-05-07T14:14:39;26.30;49.20
7970;DHT22;4030;52.362;9.206;2023-05-07T14:17:05;26.00;48.90
7970;DHT22;4030;52.362;9.206;2023-05-07T14:19:31;25.70;49.20
7970;DHT22;4030;52.362;9.206;2023-05-07T14:24:24;25.40;49.80
7970;DHT22;4030;52.362;9.206;2023-05-07T14:26:49;25.50;49.40
7970;DHT22;4030;52.362;9.206;2023-05-07T14:29:16;25.70;49.10
7970;DHT22;4030;52.362;9.206;2023-05-07T14:34:10;26.30;48.30
7970;DHT22;4030;52.362;9.206;2023-05-07T14:36:36;26.60;47.90
7970;DHT22;4030;52.362;9.206;2023-05-07T14:39:03;26.90;47.40
7970;DHT22;4030;52.362;9.206;2023-05-07T14:41:29;27.10;47.30
7970;DHT22;4030;52.362;9.206;2023-05-07T14:43:55;26.90;46.80
7970;DHT22;4030;52.362;9.206;2023-05-07T14:48:47;26.90;46.60
7970;DHT22;4030;52.362;9.206;2023-05-07T14:51:13;27.10;46.40
7970;DHT22;4030;52.362;9.206;2023-05-07T14:53:40;27.10;46.50
7970;DHT22;4030;52.362;9.206;2023-05-07T14:56:06;27.10;46.50
7970;DHT22;4030;52.362;9.206;2023-05-07T14:58:33;27.00;46.40
7970;DHT22;4030;52.362;9.206;2023-05-07T15:00:59;27.10;46.00
7970;DHT22;4030;52.362;9.206;2023-05-07T15:03:25;27.00;45.80
7970;DHT22;4030;52.362;9.206;2023-05-07T15:05:51;27.10;45.80
7970;DHT22;4030;52.362;9.206;2023-05-07T15:08:17;27.20;45.70
7970;DHT22;4030;52.362;9.206;2023-05-07T15:10:43;27.20;45.70
7970;DHT22;4030;52.362;9.206;2023-05-07T15:13:11;27.10;45.70
7970;DHT22;4030;52.362;9.206;2023-05-07T15:15:38;27.00;45.70
7970;DHT22;4030;52.362;9.206;2023-05-07T15:18:04;26.90;45.70
7970;DHT22;4030;52.362;9.206;2023-05-07T15:20:30;26.80;45.90
7970;DHT22;4030;52.362;9.206;2023-05-07T15:22:56;26.60;46.10
7970;DHT22;4030;52.362;9.206;2023-05-07T15:25:22;26.50;46.20
7970;DHT22;4030;52.362;9.206;2023-05-07T15:27:48;26.50;46.30
7970;DHT22;4030;52.362;9.206;2023-05-07T15:30:14;26.50;46.40
7970;DHT22;4030;52.362;9.206;2023-05-07T15:32:41;26.60;46.40
7970;DHT22;4030;52.362;9.206;2023-05-07T15:35:07;26.60;46.50
7970;DHT22;4030;52.362;9.206;2023-05-07T15:37:33;26.90;46.10
7970;DHT22;4030;52.362;9.206;2023-05-07T15:39:59;27.30;45.40
7970;DHT22;4030;52.362;9.206;2023-05-07T15:42:27;27.30;44.90
7970;DHT22;4030;52.362;9.206;2023-05-07T15:44:53;27.20;44.70
7970;DHT22;4030;52.362;9.206;2023-05-07T15:47:19;27.10;44.70
7970;DHT22;4030;52.362;9.206;2023-05-07T15:49:44;26.90;44.80
7970;DHT22;4030;52.362;9.206;2023-05-07T15:52:10;26.50;45.20
7970;DHT22;4030;52.362;9.206;2023-05-07T15:54:39;26.10;45.80
7970;DHT22;4030;52.362;9.206;2023-05-07T15:57:05;25.80;46.20
7970;DHT22;4030;52.362;9.206;2023-05-07T15:59:32;25.40;46.90
7970;DHT22;4030;52.362;9.206;2023-05-07T16:01:58;25.10;47.40
7970;DHT22;4030;52.362;9.206;2023-05-07T16:04:24;24.80;47.80
7970;DHT22;4030;52.362;9.206;2023-05-07T16:06:50;24.60;48.10
7970;DHT22;4030;52.362;9.206;2023-05-07T16:09:16;24.40;48.20
7970;DHT22;4030;52.362;9.206;2023-05-07T16:14:08;24.00;48.50
7970;DHT22;4030;52.362;9.206;2023-05-07T16:16:35;23.80;48.70
7970;DHT22;4030;52.362;9.206;2023-05-07T16:21:28;23.50;49.40
7970;DHT22;4030;52.362;9.206;2023-05-07T16:23:55;23.50;49.70
7970;DHT22;4030;52.362;9.206;2023-05-07T16:26:21;23.40;49.80
7970;DHT22;4030;52.362;9.206;2023-05-07T16:28:46;23.40;49.90
7970;DHT22;4030;52.362;9.206;2023-05-07T16:31:12;23.40;50.10
7970;DHT22;4030;52.362;9.206;2023-05-07T16:33:38;23.20;50.10
7970;DHT22;4030;52.362;9.206;2023-05-07T16:36:04;23.20;50.30
7970;DHT22;4030;52.362;9.206;2023-05-07T16:38:30;23.10;50.40
7970;DHT22;4030;52.362;9.206;2023-05-07T16:40:58;23.10;50.50
7970;DHT22;4030;52.362;9.206;2023-05-07T16:43:24;23.00;50.50
7970;DHT22;4030;52.362;9.206;2023-05-07T16:48:16;22.90;50.40
7970;DHT22;4030;52.362;9.206;2023-05-07T16:55:38;22.70;50.80
7970;DHT22;4030;52.362;9.206;2023-05-07T17:00:31;22.40;51.10
7970;DHT22;4030;52.362;9.206;2023-05-07T17:02:57;22.40;51.40
7970;DHT22;4030;52.362;9.206;2023-05-07T17:05:23;22.20;51.50
7970;DHT22;4030;52.362;9.206;2023-05-07T17:07:49;22.10;51.90
7970;DHT22;4030;52.362;9.206;2023-05-07T17:10:15;22.00;52.10
7970;DHT22;4030;52.362;9.206;2023-05-07T17:12:41;21.90;52.30
7970;DHT22;4030;52.362;9.206;2023-05-07T17:15:07;21.80;52.40
7970;DHT22;4030;52.362;9.206;2023-05-07T17:17:33;21.60;52.40
7970;DHT22;4030;52.362;9.206;2023-05-07T17:19:59;21.50;52.50
7970;DHT22;4030;52.362;9.206;2023-05-07T17:24:51;21.30;52.90
7970;DHT22;4030;52.362;9.206;2023-05-07T17:27:17;21.10;52.90
7970;DHT22;4030;52.362;9.206;2023-05-07T17:32:09;20.90;53.10
7970;DHT22;4030;52.362;9.206;2023-05-07T17:34:37;20.80;53.30
7970;DHT22;4030;52.362;9.206;2023-05-07T17:41:55;20.60;53.80
7970;DHT22;4030;52.362;9.206;2023-05-07T17:44:21;20.60;53.90
7970;DHT22;4030;52.362;9.206;2023-05-07T17:46:46;20.50;53.90
7970;DHT22;4030;52.362;9.206;2023-05-07T17:49:14;20.30;53.50
7970;DHT22;4030;52.362;9.206;2023-05-07T17:51:40;20.30;53.50
7970;DHT22;4030;52.362;9.206;2023-05-07T17:54:06;20.10;54.20
7970;DHT22;4030;52.362;9.206;2023-05-07T17:56:32;20.10;54.70
7970;DHT22;4030;52.362;9.206;2023-05-07T17:58:57;20.00;54.90
7970;DHT22;4030;52.362;9.206;2023-05-07T18:01:23;19.90;54.90
7970;DHT22;4030;52.362;9.206;2023-05-07T18:06:15;19.80;55.10
7970;DHT22;4030;52.362;9.206;2023-05-07T18:08:44;19.70;55.10
7970;DHT22;4030;52.362;9.206;2023-05-07T18:11:10;19.60;55.10
7970;DHT22;4030;52.362;9.206;2023-05-07T18:13:35;19.60;55.20
7970;DHT22;4030;52.362;9.206;2023-05-07T18:16:01;19.50;55.10
7970;DHT22;4030;52.362;9.206;2023-05-07T18:20:58;19.40;55.30
7970;DHT22;4030;52.362;9.206;2023-05-07T18:23:24;19.30;55.50
7970;DHT22;4030;52.362;9.206;2023-05-07T18:25:50;19.20;55.50
7970;DHT22;4030;52.362;9.206;2023-05-07T18:28:16;19.10;55.60
7970;DHT22;4030;52.362;9.206;2023-05-07T18:30:42;19.00;55.70
7970;DHT22;4030;52.362;9.206;2023-05-07T18:33:08;19.00;55.90
7970;DHT22;4030;52.362;9.206;2023-05-07T18:38:00;18.80;56.10
7970;DHT22;4030;52.362;9.206;2023-05-07T18:40:26;18.80;56.30
7970;DHT22;4030;52.362;9.206;2023-05-07T18:42:51;18.70;56.40
7970;DHT22;4030;52.362;9.206;2023-05-07T18:50:10;18.50;56.60
7970;DHT22;4030;52.362;9.206;2023-05-07T18:52:36;18.50;56.80
7970;DHT22;4030;52.362;9.206;2023-05-07T18:55:02;18.30;56.80
7970;DHT22;4030;52.362;9.206;2023-05-07T18:57:28;18.30;56.90
7970;DHT22;4030;52.362;9.206;2023-05-07T18:59:54;18.20;57.00
7970;DHT22;4030;52.362;9.206;2023-05-07T19:02:21;18.10;57.10
7970;DHT22;4030;52.362;9.206;2023-05-07T19:04:47;18.00;57.20
7970;DHT22;4030;52.362;9.206;2023-05-07T19:07:13;18.00;57.30
7970;DHT22;4030;52.362;9.206;2023-05-07T19:09:39;18.00;57.50
7970;DHT22;4030;52.362;9.206;2023-05-07T19:12:05;17.90;57.50
7970;DHT22;4030;52.362;9.206;2023-05-07T19:14:31;17.80;57.50
7970;DHT22;4030;52.362;9.206;2023-05-07T19:19:22;17.80;57.80
7970;DHT22;4030;52.362;9.206;2023-05-07T19:21:48;17.70;57.80
7970;DHT22;4030;52.362;9.206;2023-05-07T19:33:59;17.50;58.20
7970;DHT22;4030;52.362;9.206;2023-05-07T19:36:25;17.50;58.40
7970;DHT22;4030;52.362;9.206;2023-05-07T19:41:20;17.20;58.30
7970;DHT22;4030;52.362;9.206;2023-05-07T19:46:15;17.30;58.60
7970;DHT22;4030;52.362;9.206;2023-05-07T19:48:42;17.30;58.70
7970;DHT22;4030;52.362;9.206;2023-05-07T19:51:08;17.20;58.70
7970;DHT22;4030;52.362;9.206;2023-05-07T19:53:34;17.20;58.80
7970;DHT22;4030;52.362;9.206;2023-05-07T19:56:04;17.10;58.80
7970;DHT22;4030;52.362;9.206;2023-05-07T20:00:58;17.10;59.00
7970;DHT22;4030;52.362;9.206;2023-05-07T20:05:52;17.00;59.10
7970;DHT22;4030;52.362;9.206;2023-05-07T20:08:18;16.90;59.10
7970;DHT22;4030;52.362;9.206;2023-05-07T20:13:10;16.90;59.20
7970;DHT22;4030;52.362;9.206;2023-05-07T20:15:37;17.00;59.40
7970;DHT22;4030;52.362;9.206;2023-05-07T20:18:03;16.70;59.30
7970;DHT22;4030;52.362;9.206;2023-05-07T20:20:28;16.70;59.30
7970;DHT22;4030;52.362;9.206;2023-05-07T20:25:20;16.80;59.40
7970;DHT22;4030;52.362;9.206;2023-05-07T20:32:38;16.50;59.50
7970;DHT22;4030;52.362;9.206;2023-05-07T20:35:04;16.60;59.60
7970;DHT22;4030;52.362;9.206;2023-05-07T20:37:31;16.60;59.60
7970;DHT22;4030;52.362;9.206;2023-05-07T20:39:58;16.60;59.80
7970;DHT22;4030;52.362;9.206;2023-05-07T20:44:50;16.50;59.90
7970;DHT22;4030;52.362;9.206;2023-05-07T20:47:16;16.60;60.00
7970;DHT22;4030;52.362;9.206;2023-05-07T20:49:42;16.30;59.80
7970;DHT22;4030;52.362;9.206;2023-05-07T20:52:08;16.50;60.20
7970;DHT22;4030;52.362;9.206;2023-05-07T20:54:34;16.40;60.00
7970;DHT22;4030;52.362;9.206;2023-05-07T20:57:05;16.40;60.20
7970;DHT22;4030;52.362;9.206;2023-05-07T21:02:01;16.30;60.20
7970;DHT22;4030;52.362;9.206;2023-05-07T21:09:20;16.10;60.20
7970;DHT22;4030;52.362;9.206;2023-05-07T21:11:46;16.30;60.40
7970;DHT22;4030;52.362;9.206;2023-05-07T21:14:12;16.30;60.50
7970;DHT22;4030;52.362;9.206;2023-05-07T21:19:05;16.20;60.60
7970;DHT22;4030;52.362;9.206;2023-05-07T21:21:31;16.20;60.70
7970;DHT22;4030;52.362;9.206;2023-05-07T21:23:56;16.20;60.70
7970;DHT22;4030;52.362;9.206;2023-05-07T21:26:22;16.10;60.70
7970;DHT22;4030;52.362;9.206;2023-05-07T21:28:48;16.20;60.80
7970;DHT22;4030;52.362;9.206;2023-05-07T21:33:42;16.00;60.70
7970;DHT22;4030;52.362;9.206;2023-05-07T21:38:38;15.90;60.80
7970;DHT22;4030;52.362;9.206;2023-05-07T21:41:05;15.80;60.90
7970;DHT22;4030;52.362;9.206;2023-05-07T21:43:31;16.00;61.30
7970;DHT22;4030;52.362;9.206;2023-05-07T21:45:57;16.00;61.30
7970;DHT22;4030;52.362;9.206;2023-05-07T21:48:25;16.00;61.40
7970;DHT22;4030;52.362;9.206;2023-05-07T21:51:05;16.00;61.30
7970;DHT22;4030;52.362;9.206;2023-05-07T21:53:32;15.70;61.20